Descanso, CA (91916)

2:58 AM PDT on July 27, 2016 (GMT -0700)
Descanso/Sherilton Valley | | Change Station

Elev 3363 ft 32.91 °N, 116.62 °W | Updated 3 minutes ago

Clear
Clear
67.8 °F
Feels Like 67.8 °F
N
3.0
Wind Variable Wind from East
Gusts 7.0 mph

Today
High -- | Low -- °F
--% Chance of Precip.
Yesterday
High -- | Low -- °F
Precip. -- in
Pressure 29.82 in
Visibility -9999.0 miles
Clouds
Dew Point 50 °F
Humidity 53%
Rainfall 0.00 in
Snow Depth Not available.
5:57 AM 7:48 PM
Last Quarter, 45% visible
METAR KCZZ 270952Z AUTO 03004KT 19/11 A2994 RMK AO1 SLP098 T01940106
Pressure 29.82 in
Visibility -9999.0 miles
Clouds
Dew Point 50 °F
Humidity 53%
Rainfall 0.00 in
Snow Depth Not available.
5:57 AM 7:48 PM
Last Quarter, 45% visible
METAR KCZZ 270952Z AUTO 03004KT 19/11 A2994 RMK AO1 SLP098 T01940106

10-Day Weather Forecast

Almanac

Astronomy

Jul. 27, 2016 Rise Set
Actual Time
Civil Twilight
Nautical Twilight
Astronomical Twilight
Moon
Length of Visible Light
Length of Day
Tomorrow will be .
, % of the Moon is Illuminated

Today's Extremes

State Highs State Lows

Community

WunderPhotos

Upload Photos

1,927,818 photos uploaded!

WunderBlog® & News

Nearby

Air Quality

  Air Quality AQ Index Pollutant
Not available.

Snow Depth

Station Depth Elevation

Earthquake Activity

City Distance Mag. Time & Date
Minimum magnitude displayed is 2.5.

Coastal Water Temperatures

Place Temperature

Stations

Nearby Weather Stations

Station Location Temp. Windchill Dew Point Humidity Wind Precip. Elev Updated Type
                   

Watches & Warnings

There are currently no watches in effect.